Radium, Minnesota
Current Conditions -  °F | °C
As of 6:15 AM on Friday 28 Nov 2014 (Local Time) from KTVF Reporting Station
Overcast Overcast  
Wind Chill: -3°   Ceiling: 1900
Heat Index: 10°   Visibility: 10mi
Dew Point:   Wind: 10mph
Humidity: 79%   Direction: 100°E
Pressure: 29.99"   Gusts: NA
Location:  48.2512°N, 96.7287°W
Report Text: KTVF 281215Z AUTO 10009KT 10SM OVC019 M12/M15 A2999 RMK AO1
Loading
Personal Weather Stations






























Interactive Weather Map New forecast layout! Learn more

10-Day Weather Forecast

Advertisements
Track Severe Weather on mobile